sensor_id;sensor_type;location;lat;lon;timestamp;pressure;altitude;pressure_sealevel;temperature
74485;BMP280;62942;52.462;10.846;2024-03-29T00:00:27;98830;;;
74485;BMP280;62942;52.462;10.846;2024-03-29T00:01:37;98830;;;
74485;BMP280;62942;52.462;10.846;2024-03-29T00:02:37;98830;;;
74485;BMP280;62942;52.462;10.846;2024-03-29T00:03:47;98830;;;
74485;BMP280;62942;52.462;10.846;2024-03-29T00:04:57;98830;;;
74485;BMP280;62942;52.462;10.846;2024-03-29T00:05:57;98830;;;
74485;BMP280;62942;52.462;10.846;2024-03-29T00:07:07;98830;;;
74485;BMP280;62942;52.462;10.846;2024-03-29T00:08:17;98830;;;
74485;BMP280;62942;52.462;10.846;2024-03-29T00:09:27;98820;;;
74485;BMP280;62942;52.462;10.846;2024-03-29T00:10:37;98820;;;
74485;BMP280;62942;52.462;10.846;2024-03-29T00:11:47;98820;;;
74485;BMP280;62942;52.462;10.846;2024-03-29T00:12:58;98820;;;
74485;BMP280;62942;52.462;10.846;2024-03-29T00:14:07;98820;;;
74485;BMP280;62942;52.462;10.846;2024-03-29T00:15:17;98820;;;
74485;BMP280;62942;52.462;10.846;2024-03-29T00:16:17;98820;;;
74485;BMP280;62942;52.462;10.846;2024-03-29T00:17:27;98810;;;
74485;BMP280;62942;52.462;10.846;2024-03-29T00:18:37;98810;;;
74485;BMP280;62942;52.462;10.846;2024-03-29T00:19:37;98810;;;
74485;BMP280;62942;52.462;10.846;2024-03-29T00:20:47;98810;;;
74485;BMP280;62942;52.462;10.846;2024-03-29T00:21:57;98810;;;
74485;BMP280;62942;52.462;10.846;2024-03-29T00:23:07;98810;;;
74485;BMP280;62942;52.462;10.846;2024-03-29T00:24:17;98810;;;
74485;BMP280;62942;52.462;10.846;2024-03-29T00:25:27;98810;;;
74485;BMP280;62942;52.462;10.846;2024-03-29T00:26:37;98810;;;
74485;BMP280;62942;52.462;10.846;2024-03-29T00:27:37;98810;;;
74485;BMP280;62942;52.462;10.846;2024-03-29T00:28:47;98800;;;
74485;BMP280;62942;52.462;10.846;2024-03-29T00:29:57;98810;;;
74485;BMP280;62942;52.462;10.846;2024-03-29T00:31:07;98810;;;
74485;BMP280;62942;52.462;10.846;2024-03-29T00:32:07;98810;;;
74485;BMP280;62942;52.462;10.846;2024-03-29T00:33:17;98800;;;
74485;BMP280;62942;52.462;10.846;2024-03-29T00:34:27;98810;;;
74485;BMP280;62942;52.462;10.846;2024-03-29T00:35:27;98800;;;
74485;BMP280;62942;52.462;10.846;2024-03-29T00:36:37;98800;;;
74485;BMP280;62942;52.462;10.846;2024-03-29T00:37:37;98790;;;
74485;BMP280;62942;52.462;10.846;2024-03-29T00:38:47;98800;;;
74485;BMP280;62942;52.462;10.846;2024-03-29T00:39:47;98800;;;
74485;BMP280;62942;52.462;10.846;2024-03-29T00:40:47;98810;;;
74485;BMP280;62942;52.462;10.846;2024-03-29T00:41:47;98810;;;
74485;BMP280;62942;52.462;10.846;2024-03-29T00:42:57;98810;;;
74485;BMP280;62942;52.462;10.846;2024-03-29T00:44:07;98800;;;
74485;BMP280;62942;52.462;10.846;2024-03-29T00:45:07;98800;;;
74485;BMP280;62942;52.462;10.846;2024-03-29T00:46:17;98800;;;
74485;BMP280;62942;52.462;10.846;2024-03-29T00:47:17;98810;;;
74485;BMP280;62942;52.462;10.846;2024-03-29T00:48:27;98810;;;
74485;BMP280;62942;52.462;10.846;2024-03-29T00:49:37;98810;;;
74485;BMP280;62942;52.462;10.846;2024-03-29T00:50:37;98810;;;
74485;BMP280;62942;52.462;10.846;2024-03-29T00:51:47;98810;;;
74485;BMP280;62942;52.462;10.846;2024-03-29T00:52:47;98820;;;
74485;BMP280;62942;52.462;10.846;2024-03-29T00:53:57;98820;;;
74485;BMP280;62942;52.462;10.846;2024-03-29T00:54:57;98820;;;
74485;BMP280;62942;52.462;10.846;2024-03-29T00:56:07;98820;;;
74485;BMP280;62942;52.462;10.846;2024-03-29T00:57:17;98820;;;
74485;BMP280;62942;52.462;10.846;2024-03-29T00:58:27;98810;;;
74485;BMP280;62942;52.462;10.846;2024-03-29T00:59:37;98810;;;
74485;BMP280;62942;52.462;10.846;2024-03-29T01:00:37;98810;;;
74485;BMP280;62942;52.462;10.846;2024-03-29T01:01:47;98810;;;
74485;BMP280;62942;52.462;10.846;2024-03-29T01:02:57;98810;;;
74485;BMP280;62942;52.462;10.846;2024-03-29T01:03:57;98810;;;
74485;BMP280;62942;52.462;10.846;2024-03-29T01:05:07;98820;;;
74485;BMP280;62942;52.462;10.846;2024-03-29T01:06:17;98820;;;
74485;BMP280;62942;52.462;10.846;2024-03-29T01:07:27;98830;;;
74485;BMP280;62942;52.462;10.846;2024-03-29T01:08:27;98830;;;
74485;BMP280;62942;52.462;10.846;2024-03-29T01:09:37;98820;;;
74485;BMP280;62942;52.462;10.846;2024-03-29T01:10:47;98820;;;
74485;BMP280;62942;52.462;10.846;2024-03-29T01:11:57;98820;;;
74485;BMP280;62942;52.462;10.846;2024-03-29T01:13:07;98820;;;
74485;BMP280;62942;52.462;10.846;2024-03-29T01:14:17;98820;;;
74485;BMP280;62942;52.462;10.846;2024-03-29T01:15:27;98820;;;
74485;BMP280;62942;52.462;10.846;2024-03-29T01:16:27;98810;;;
74485;BMP280;62942;52.462;10.846;2024-03-29T01:17:37;98820;;;
74485;BMP280;62942;52.462;10.846;2024-03-29T01:18:37;98820;;;
74485;BMP280;62942;52.462;10.846;2024-03-29T01:19:47;98830;;;
74485;BMP280;62942;52.462;10.846;2024-03-29T01:20:47;98830;;;
74485;BMP280;62942;52.462;10.846;2024-03-29T01:21:57;98830;;;
74485;BMP280;62942;52.462;10.846;2024-03-29T01:22:57;98830;;;
74485;BMP280;62942;52.462;10.846;2024-03-29T01:24:07;98830;;;
74485;BMP280;62942;52.462;10.846;2024-03-29T01:25:17;98830;;;
74485;BMP280;62942;52.462;10.846;2024-03-29T01:26:17;98840;;;
74485;BMP280;62942;52.462;10.846;2024-03-29T01:27:27;98830;;;
74485;BMP280;62942;52.462;10.846;2024-03-29T01:28:27;98830;;;
74485;BMP280;62942;52.462;10.846;2024-03-29T01:29:37;98840;;;
74485;BMP280;62942;52.462;10.846;2024-03-29T01:30:51;98840;;;
74485;BMP280;62942;52.462;10.846;2024-03-29T01:31:57;98840;;;
74485;BMP280;62942;52.462;10.846;2024-03-29T01:33:07;98840;;;
74485;BMP280;62942;52.462;10.846;2024-03-29T01:34:17;98840;;;
74485;BMP280;62942;52.462;10.846;2024-03-29T01:35:27;98830;;;
74485;BMP280;62942;52.462;10.846;2024-03-29T01:36:37;98830;;;
74485;BMP280;62942;52.462;10.846;2024-03-29T01:37:47;98830;;;
74485;BMP280;62942;52.462;10.846;2024-03-29T01:38:57;98830;;;
74485;BMP280;62942;52.462;10.846;2024-03-29T01:39:57;98830;;;
74485;BMP280;62942;52.462;10.846;2024-03-29T01:40:57;98830;;;
74485;BMP280;62942;52.462;10.846;2024-03-29T01:42:07;98830;;;
74485;BMP280;62942;52.462;10.846;2024-03-29T01:43:07;98830;;;
74485;BMP280;62942;52.462;10.846;2024-03-29T01:44:07;98820;;;
74485;BMP280;62942;52.462;10.846;2024-03-29T01:45:17;98830;;;
74485;BMP280;62942;52.462;10.846;2024-03-29T01:46:27;98830;;;
74485;BMP280;62942;52.462;10.846;2024-03-29T01:47:37;98830;;;
74485;BMP280;62942;52.462;10.846;2024-03-29T01:48:37;98830;;;
74485;BMP280;62942;52.462;10.846;2024-03-29T01:49:47;98830;;;
74485;BMP280;62942;52.462;10.846;2024-03-29T01:50:57;98820;;;
74485;BMP280;62942;52.462;10.846;2024-03-29T01:52:07;98820;;;
74485;BMP280;62942;52.462;10.846;2024-03-29T01:53:07;98830;;;
74485;BMP280;62942;52.462;10.846;2024-03-29T01:54:17;98830;;;
74485;BMP280;62942;52.462;10.846;2024-03-29T01:55:27;98830;;;
74485;BMP280;62942;52.462;10.846;2024-03-29T01:56:27;98830;;;
74485;BMP280;62942;52.462;10.846;2024-03-29T01:57:27;98830;;;
74485;BMP280;62942;52.462;10.846;2024-03-29T01:58:37;98820;;;
74485;BMP280;62942;52.462;10.846;2024-03-29T01:59:47;98820;;;
74485;BMP280;62942;52.462;10.846;2024-03-29T02:00:57;98820;;;
74485;BMP280;62942;52.462;10.846;2024-03-29T02:02:07;98820;;;
74485;BMP280;62942;52.462;10.846;2024-03-29T02:03:07;98820;;;
74485;BMP280;62942;52.462;10.846;2024-03-29T02:04:17;98820;;;
74485;BMP280;62942;52.462;10.846;2024-03-29T02:05:17;98820;;;
74485;BMP280;62942;52.462;10.846;2024-03-29T02:06:27;98820;;;
74485;BMP280;62942;52.462;10.846;2024-03-29T02:07:27;98820;;;
74485;BMP280;62942;52.462;10.846;2024-03-29T02:08:37;98820;;;
74485;BMP280;62942;52.462;10.846;2024-03-29T02:09:47;98820;;;
74485;BMP280;62942;52.462;10.846;2024-03-29T02:10:57;98820;;;
74485;BMP280;62942;52.462;10.846;2024-03-29T02:12:07;98820;;;
74485;BMP280;62942;52.462;10.846;2024-03-29T02:13:07;98810;;;
74485;BMP280;62942;52.462;10.846;2024-03-29T02:14:17;98820;;;
74485;BMP280;62942;52.462;10.846;2024-03-29T02:15:27;98820;;;
74485;BMP280;62942;52.462;10.846;2024-03-29T02:16:27;98820;;;
74485;BMP280;62942;52.462;10.846;2024-03-29T02:17:37;98830;;;
74485;BMP280;62942;52.462;10.846;2024-03-29T02:18:47;98820;;;
74485;BMP280;62942;52.462;10.846;2024-03-29T02:19:57;98830;;;
74485;BMP280;62942;52.462;10.846;2024-03-29T02:20:57;98840;;;
74485;BMP280;62942;52.462;10.846;2024-03-29T02:22:07;98830;;;
74485;BMP280;62942;52.462;10.846;2024-03-29T02:23:08;98840;;;
74485;BMP280;62942;52.462;10.846;2024-03-29T02:24:17;98850;;;
74485;BMP280;62942;52.462;10.846;2024-03-29T02:25:17;98850;;;
74485;BMP280;62942;52.462;10.846;2024-03-29T02:26:27;98850;;;
74485;BMP280;62942;52.462;10.846;2024-03-29T02:27:37;98860;;;
74485;BMP280;62942;52.462;10.846;2024-03-29T02:28:47;98850;;;
74485;BMP280;62942;52.462;10.846;2024-03-29T02:29:57;98850;;;
74485;BMP280;62942;52.462;10.846;2024-03-29T02:31:07;98860;;;
74485;BMP280;62942;52.462;10.846;2024-03-29T02:32:07;98870;;;
74485;BMP280;62942;52.462;10.846;2024-03-29T02:33:17;98870;;;
74485;BMP280;62942;52.462;10.846;2024-03-29T02:34:27;98870;;;
74485;BMP280;62942;52.462;10.846;2024-03-29T02:35:27;98880;;;
74485;BMP280;62942;52.462;10.846;2024-03-29T02:36:37;98880;;;
74485;BMP280;62942;52.462;10.846;2024-03-29T02:37:37;98880;;;
74485;BMP280;62942;52.462;10.846;2024-03-29T02:38:47;98880;;;
74485;BMP280;62942;52.462;10.846;2024-03-29T02:39:57;98900;;;
74485;BMP280;62942;52.462;10.846;2024-03-29T02:41:07;98890;;;
74485;BMP280;62942;52.462;10.846;2024-03-29T02:42:07;98890;;;
74485;BMP280;62942;52.462;10.846;2024-03-29T02:43:17;98890;;;
74485;BMP280;62942;52.462;10.846;2024-03-29T02:44:17;98880;;;
74485;BMP280;62942;52.462;10.846;2024-03-29T02:45:27;98890;;;
74485;BMP280;62942;52.462;10.846;2024-03-29T02:46:37;98890;;;
74485;BMP280;62942;52.462;10.846;2024-03-29T02:47:37;98890;;;
74485;BMP280;62942;52.462;10.846;2024-03-29T02:48:47;98890;;;
74485;BMP280;62942;52.462;10.846;2024-03-29T02:49:47;98890;;;
74485;BMP280;62942;52.462;10.846;2024-03-29T02:50:57;98890;;;
74485;BMP280;62942;52.462;10.846;2024-03-29T02:52:07;98890;;;
74485;BMP280;62942;52.462;10.846;2024-03-29T02:53:07;98890;;;
74485;BMP280;62942;52.462;10.846;2024-03-29T02:54:20;98890;;;
74485;BMP280;62942;52.462;10.846;2024-03-29T02:55:27;98880;;;
74485;BMP280;62942;52.462;10.846;2024-03-29T02:56:37;98880;;;
74485;BMP280;62942;52.462;10.846;2024-03-29T02:57:47;98880;;;
74485;BMP280;62942;52.462;10.846;2024-03-29T02:58:57;98880;;;
74485;BMP280;62942;52.462;10.846;2024-03-29T02:59:57;98880;;;
74485;BMP280;62942;52.462;10.846;2024-03-29T03:01:07;98880;;;
74485;BMP280;62942;52.462;10.846;2024-03-29T03:02:07;98880;;;
74485;BMP280;62942;52.462;10.846;2024-03-29T03:03:17;98870;;;
74485;BMP280;62942;52.462;10.846;2024-03-29T03:04:27;98870;;;
74485;BMP280;62942;52.462;10.846;2024-03-29T03:05:27;98860;;;
74485;BMP280;62942;52.462;10.846;2024-03-29T03:06:37;98850;;;
74485;BMP280;62942;52.462;10.846;2024-03-29T03:07:47;98860;;;
74485;BMP280;62942;52.462;10.846;2024-03-29T03:08:57;98860;;;
74485;BMP280;62942;52.462;10.846;2024-03-29T03:09:57;98860;;;
74485;BMP280;62942;52.462;10.846;2024-03-29T03:11:07;98860;;;
74485;BMP280;62942;52.462;10.846;2024-03-29T03:12:17;98850;;;
74485;BMP280;62942;52.462;10.846;2024-03-29T03:13:27;98850;;;
74485;BMP280;62942;52.462;10.846;2024-03-29T03:14:37;98840;;;
74485;BMP280;62942;52.462;10.846;2024-03-29T03:15:37;98840;;;
74485;BMP280;62942;52.462;10.846;2024-03-29T03:16:37;98840;;;
74485;BMP280;62942;52.462;10.846;2024-03-29T03:17:47;98830;;;
74485;BMP280;62942;52.462;10.846;2024-03-29T03:18:47;98830;;;
74485;BMP280;62942;52.462;10.846;2024-03-29T03:19:57;98820;;;
74485;BMP280;62942;52.462;10.846;2024-03-29T03:20:57;98810;;;
74485;BMP280;62942;52.462;10.846;2024-03-29T03:21:57;98800;;;
74485;BMP280;62942;52.462;10.846;2024-03-29T03:23:07;98790;;;
74485;BMP280;62942;52.462;10.846;2024-03-29T03:24:17;98800;;;
74485;BMP280;62942;52.462;10.846;2024-03-29T03:25:27;98800;;;
74485;BMP280;62942;52.462;10.846;2024-03-29T03:26:37;98800;;;
74485;BMP280;62942;52.462;10.846;2024-03-29T03:27:47;98790;;;
74485;BMP280;62942;52.462;10.846;2024-03-29T03:28:47;98790;;;
74485;BMP280;62942;52.462;10.846;2024-03-29T03:29:57;98790;;;
74485;BMP280;62942;52.462;10.846;2024-03-29T03:30:57;98790;;;
74485;BMP280;62942;52.462;10.846;2024-03-29T03:32:07;98790;;;
74485;BMP280;62942;52.462;10.846;2024-03-29T03:33:07;98790;;;
74485;BMP280;62942;52.462;10.846;2024-03-29T03:34:17;98790;;;
74485;BMP280;62942;52.462;10.846;2024-03-29T03:35:17;98800;;;
74485;BMP280;62942;52.462;10.846;2024-03-29T03:36:27;98790;;;
74485;BMP280;62942;52.462;10.846;2024-03-29T03:37:37;98790;;;
74485;BMP280;62942;52.462;10.846;2024-03-29T03:38:47;98810;;;
74485;BMP280;62942;52.462;10.846;2024-03-29T03:39:57;98800;;;
74485;BMP280;62942;52.462;10.846;2024-03-29T03:41:07;98800;;;
74485;BMP280;62942;52.462;10.846;2024-03-29T03:42:07;98800;;;
74485;BMP280;62942;52.462;10.846;2024-03-29T03:43:17;98790;;;
74485;BMP280;62942;52.462;10.846;2024-03-29T03:44:27;98800;;;
74485;BMP280;62942;52.462;10.846;2024-03-29T03:45:37;98800;;;
74485;BMP280;62942;52.462;10.846;2024-03-29T03:46:47;98810;;;
74485;BMP280;62942;52.462;10.846;2024-03-29T03:47:57;98820;;;
74485;BMP280;62942;52.462;10.846;2024-03-29T03:48:57;98800;;;
74485;BMP280;62942;52.462;10.846;2024-03-29T03:50:07;98810;;;
74485;BMP280;62942;52.462;10.846;2024-03-29T03:51:17;98800;;;
74485;BMP280;62942;52.462;10.846;2024-03-29T03:52:27;98810;;;
74485;BMP280;62942;52.462;10.846;2024-03-29T03:53:27;98810;;;
74485;BMP280;62942;52.462;10.846;2024-03-29T03:54:37;98800;;;
74485;BMP280;62942;52.462;10.846;2024-03-29T03:55:37;98800;;;
74485;BMP280;62942;52.462;10.846;2024-03-29T03:56:47;98800;;;
74485;BMP280;62942;52.462;10.846;2024-03-29T03:57:47;98800;;;
74485;BMP280;62942;52.462;10.846;2024-03-29T03:58:57;98800;;;
74485;BMP280;62942;52.462;10.846;2024-03-29T04:00:07;98790;;;
74485;BMP280;62942;52.462;10.846;2024-03-29T04:01:17;98800;;;
74485;BMP280;62942;52.462;10.846;2024-03-29T04:02:27;98800;;;
74485;BMP280;62942;52.462;10.846;2024-03-29T04:03:37;98810;;;
74485;BMP280;62942;52.462;10.846;2024-03-29T04:04:37;98810;;;
74485;BMP280;62942;52.462;10.846;2024-03-29T04:05:47;98810;;;
74485;BMP280;62942;52.462;10.846;2024-03-29T04:06:47;98800;;;
74485;BMP280;62942;52.462;10.846;2024-03-29T04:07:57;98800;;;
74485;BMP280;62942;52.462;10.846;2024-03-29T04:08:57;98810;;;
74485;BMP280;62942;52.462;10.846;2024-03-29T04:10:07;98820;;;
74485;BMP280;62942;52.462;10.846;2024-03-29T04:11:17;98820;;;
74485;BMP280;62942;52.462;10.846;2024-03-29T04:12:27;98820;;;
74485;BMP280;62942;52.462;10.846;2024-03-29T04:13:37;98810;;;
74485;BMP280;62942;52.462;10.846;2024-03-29T04:14:37;98810;;;
74485;BMP280;62942;52.462;10.846;2024-03-29T04:15:47;98820;;;
74485;BMP280;62942;52.462;10.846;2024-03-29T04:16:57;98820;;;
74485;BMP280;62942;52.462;10.846;2024-03-29T04:17:57;98820;;;
74485;BMP280;62942;52.462;10.846;2024-03-29T04:19:07;98800;;;
74485;BMP280;62942;52.462;10.846;2024-03-29T04:20:17;98820;;;
74485;BMP280;62942;52.462;10.846;2024-03-29T04:21:17;98810;;;
74485;BMP280;62942;52.462;10.846;2024-03-29T04:22:17;98810;;;
74485;BMP280;62942;52.462;10.846;2024-03-29T04:23:27;98810;;;
74485;BMP280;62942;52.462;10.846;2024-03-29T04:24:37;98810;;;
74485;BMP280;62942;52.462;10.846;2024-03-29T04:25:36;98820;;;
74485;BMP280;62942;52.462;10.846;2024-03-29T04:26:47;98810;;;
74485;BMP280;62942;52.462;10.846;2024-03-29T04:27:58;98810;;;
74485;BMP280;62942;52.462;10.846;2024-03-29T04:29:06;98820;;;
74485;BMP280;62942;52.462;10.846;2024-03-29T04:30:07;98820;;;
74485;BMP280;62942;52.462;10.846;2024-03-29T04:31:17;98820;;;
74485;BMP280;62942;52.462;10.846;2024-03-29T04:32:26;98820;;;
74485;BMP280;62942;52.462;10.846;2024-03-29T04:33:36;98820;;;
74485;BMP280;62942;52.462;10.846;2024-03-29T04:34:47;98820;;;
74485;BMP280;62942;52.462;10.846;2024-03-29T04:35:51;98830;;;
74485;BMP280;62942;52.462;10.846;2024-03-29T04:36:46;98830;;;
74485;BMP280;62942;52.462;10.846;2024-03-29T04:37:56;98820;;;
74485;BMP280;62942;52.462;10.846;2024-03-29T04:39:06;98830;;;
74485;BMP280;62942;52.462;10.846;2024-03-29T04:40:07;98830;;;
74485;BMP280;62942;52.462;10.846;2024-03-29T04:41:07;98830;;;
74485;BMP280;62942;52.462;10.846;2024-03-29T04:42:16;98830;;;
74485;BMP280;62942;52.462;10.846;2024-03-29T04:43:17;98830;;;
74485;BMP280;62942;52.462;10.846;2024-03-29T04:44:27;98830;;;
74485;BMP280;62942;52.462;10.846;2024-03-29T04:45:36;98830;;;
74485;BMP280;62942;52.462;10.846;2024-03-29T04:46:46;98830;;;
74485;BMP280;62942;52.462;10.846;2024-03-29T04:47:46;98830;;;
74485;BMP280;62942;52.462;10.846;2024-03-29T04:48:57;98820;;;
74485;BMP280;62942;52.462;10.846;2024-03-29T04:50:07;98820;;;
74485;BMP280;62942;52.462;10.846;2024-03-29T04:51:16;98820;;;
74485;BMP280;62942;52.462;10.846;2024-03-29T04:52:17;98810;;;
74485;BMP280;62942;52.462;10.846;2024-03-29T04:53:26;98820;;;
74485;BMP280;62942;52.462;10.846;2024-03-29T04:54:36;98820;;;
74485;BMP280;62942;52.462;10.846;2024-03-29T04:55:48;98830;;;
74485;BMP280;62942;52.462;10.846;2024-03-29T04:56:58;98830;;;
74485;BMP280;62942;52.462;10.846;2024-03-29T04:58:06;98820;;;
74485;BMP280;62942;52.462;10.846;2024-03-29T04:59:16;98810;;;
74485;BMP280;62942;52.462;10.846;2024-03-29T05:00:17;98820;;;
74485;BMP280;62942;52.462;10.846;2024-03-29T05:01:17;98820;;;
74485;BMP280;62942;52.462;10.846;2024-03-29T05:02:26;98820;;;
74485;BMP280;62942;52.462;10.846;2024-03-29T05:03:36;98820;;;
74485;BMP280;62942;52.462;10.846;2024-03-29T05:04:46;98820;;;
74485;BMP280;62942;52.462;10.846;2024-03-29T05:05:56;98820;;;
74485;BMP280;62942;52.462;10.846;2024-03-29T05:06:57;98820;;;
74485;BMP280;62942;52.462;10.846;2024-03-29T05:07:56;98830;;;
74485;BMP280;62942;52.462;10.846;2024-03-29T05:09:06;98830;;;
74485;BMP280;62942;52.462;10.846;2024-03-29T05:10:07;98830;;;
74485;BMP280;62942;52.462;10.846;2024-03-29T05:11:16;98830;;;
74485;BMP280;62942;52.462;10.846;2024-03-29T05:12:26;98840;;;
74485;BMP280;62942;52.462;10.846;2024-03-29T05:13:27;98840;;;
74485;BMP280;62942;52.462;10.846;2024-03-29T05:14:36;98840;;;
74485;BMP280;62942;52.462;10.846;2024-03-29T05:15:46;98840;;;
74485;BMP280;62942;52.462;10.846;2024-03-29T05:16:56;98840;;;
74485;BMP280;62942;52.462;10.846;2024-03-29T05:18:06;98850;;;
74485;BMP280;62942;52.462;10.846;2024-03-29T05:19:16;98850;;;
74485;BMP280;62942;52.462;10.846;2024-03-29T05:20:16;98850;;;
74485;BMP280;62942;52.462;10.846;2024-03-29T05:21:26;98840;;;
74485;BMP280;62942;52.462;10.846;2024-03-29T05:22:26;98840;;;
74485;BMP280;62942;52.462;10.846;2024-03-29T05:23:36;98830;;;
74485;BMP280;62942;52.462;10.846;2024-03-29T05:24:46;98840;;;
74485;BMP280;62942;52.462;10.846;2024-03-29T05:25:56;98850;;;
74485;BMP280;62942;52.462;10.846;2024-03-29T05:27:06;98880;;;
74485;BMP280;62942;52.462;10.846;2024-03-29T05:28:16;98880;;;
74485;BMP280;62942;52.462;10.846;2024-03-29T05:29:26;98880;;;
74485;BMP280;62942;52.462;10.846;2024-03-29T05:30:26;98880;;;
74485;BMP280;62942;52.462;10.846;2024-03-29T05:31:36;98880;;;
74485;BMP280;62942;52.462;10.846;2024-03-29T05:32:46;98890;;;
74485;BMP280;62942;52.462;10.846;2024-03-29T05:33:56;98890;;;
74485;BMP280;62942;52.462;10.846;2024-03-29T05:35:07;98890;;;
74485;BMP280;62942;52.462;10.846;2024-03-29T05:36:16;98890;;;
74485;BMP280;62942;52.462;10.846;2024-03-29T05:37:16;98890;;;
74485;BMP280;62942;52.462;10.846;2024-03-29T05:38:26;98890;;;
74485;BMP280;62942;52.462;10.846;2024-03-29T05:39:36;98890;;;
74485;BMP280;62942;52.462;10.846;2024-03-29T05:40:46;98890;;;
74485;BMP280;62942;52.462;10.846;2024-03-29T05:41:46;98900;;;
74485;BMP280;62942;52.462;10.846;2024-03-29T05:42:56;98900;;;
74485;BMP280;62942;52.462;10.846;2024-03-29T05:43:56;98900;;;
74485;BMP280;62942;52.462;10.846;2024-03-29T05:45:20;98890;;;
74485;BMP280;62942;52.462;10.846;2024-03-29T05:46:16;98900;;;
74485;BMP280;62942;52.462;10.846;2024-03-29T05:47:26;98900;;;
74485;BMP280;62942;52.462;10.846;2024-03-29T05:48:36;98900;;;
74485;BMP280;62942;52.462;10.846;2024-03-29T05:49:46;98900;;;
74485;BMP280;62942;52.462;10.846;2024-03-29T05:50:46;98900;;;
74485;BMP280;62942;52.462;10.846;2024-03-29T05:51:56;98900;;;
74485;BMP280;62942;52.462;10.846;2024-03-29T05:53:06;98910;;;
74485;BMP280;62942;52.462;10.846;2024-03-29T05:54:16;98910;;;
74485;BMP280;62942;52.462;10.846;2024-03-29T05:55:16;98910;;;
74485;BMP280;62942;52.462;10.846;2024-03-29T05:56:26;98920;;;
74485;BMP280;62942;52.462;10.846;2024-03-29T05:57:36;98920;;;
74485;BMP280;62942;52.462;10.846;2024-03-29T05:58:36;98920;;;
74485;BMP280;62942;52.462;10.846;2024-03-29T05:59:36;98930;;;
74485;BMP280;62942;52.462;10.846;2024-03-29T06:00:46;98930;;;
74485;BMP280;62942;52.462;10.846;2024-03-29T06:01:56;98930;;;
74485;BMP280;62942;52.462;10.846;2024-03-29T06:02:56;98930;;;
74485;BMP280;62942;52.462;10.846;2024-03-29T06:04:06;98930;;;
74485;BMP280;62942;52.462;10.846;2024-03-29T06:05:16;98940;;;
74485;BMP280;62942;52.462;10.846;2024-03-29T06:06:26;98940;;;
74485;BMP280;62942;52.462;10.846;2024-03-29T06:07:26;98930;;;
74485;BMP280;62942;52.462;10.846;2024-03-29T06:08:26;98920;;;
74485;BMP280;62942;52.462;10.846;2024-03-29T06:09:26;98920;;;
74485;BMP280;62942;52.462;10.846;2024-03-29T06:10:26;98930;;;
74485;BMP280;62942;52.462;10.846;2024-03-29T06:11:26;98930;;;
74485;BMP280;62942;52.462;10.846;2024-03-29T06:12:26;98950;;;
74485;BMP280;62942;52.462;10.846;2024-03-29T06:13:36;98940;;;
74485;BMP280;62942;52.462;10.846;2024-03-29T06:14:36;98940;;;
74485;BMP280;62942;52.462;10.846;2024-03-29T06:15:36;98950;;;
74485;BMP280;62942;52.462;10.846;2024-03-29T06:16:36;98950;;;
74485;BMP280;62942;52.462;10.846;2024-03-29T06:17:46;98950;;;
74485;BMP280;62942;52.462;10.846;2024-03-29T06:18:46;98940;;;
74485;BMP280;62942;52.462;10.846;2024-03-29T06:19:46;98940;;;
74485;BMP280;62942;52.462;10.846;2024-03-29T06:20:56;98950;;;
74485;BMP280;62942;52.462;10.846;2024-03-29T06:21:56;98950;;;
74485;BMP280;62942;52.462;10.846;2024-03-29T06:23:06;98960;;;
74485;BMP280;62942;52.462;10.846;2024-03-29T06:24:07;98960;;;
74485;BMP280;62942;52.462;10.846;2024-03-29T06:25:17;98960;;;
74485;BMP280;62942;52.462;10.846;2024-03-29T06:26:16;98960;;;
74485;BMP280;62942;52.462;10.846;2024-03-29T06:27:16;98960;;;
74485;BMP280;62942;52.462;10.846;2024-03-29T06:28:26;98970;;;
74485;BMP280;62942;52.462;10.846;2024-03-29T06:29:26;98970;;;
74485;BMP280;62942;52.462;10.846;2024-03-29T06:30:36;98970;;;
74485;BMP280;62942;52.462;10.846;2024-03-29T06:31:36;98970;;;
74485;BMP280;62942;52.462;10.846;2024-03-29T06:32:46;98970;;;
74485;BMP280;62942;52.462;10.846;2024-03-29T06:33:46;98970;;;
74485;BMP280;62942;52.462;10.846;2024-03-29T06:34:56;98970;;;
74485;BMP280;62942;52.462;10.846;2024-03-29T06:35:56;98970;;;
74485;BMP280;62942;52.462;10.846;2024-03-29T06:36:56;98980;;;
74485;BMP280;62942;52.462;10.846;2024-03-29T06:38:06;98980;;;
74485;BMP280;62942;52.462;10.846;2024-03-29T06:39:06;98980;;;
74485;BMP280;62942;52.462;10.846;2024-03-29T06:40:16;98990;;;
74485;BMP280;62942;52.462;10.846;2024-03-29T06:41:16;98990;;;
74485;BMP280;62942;52.462;10.846;2024-03-29T06:42:26;98990;;;
74485;BMP280;62942;52.462;10.846;2024-03-29T06:43:26;98990;;;
74485;BMP280;62942;52.462;10.846;2024-03-29T06:44:26;98980;;;
74485;BMP280;62942;52.462;10.846;2024-03-29T06:45:26;98990;;;
74485;BMP280;62942;52.462;10.846;2024-03-29T06:46:36;98990;;;
74485;BMP280;62942;52.462;10.846;2024-03-29T06:47:46;99000;;;
74485;BMP280;62942;52.462;10.846;2024-03-29T06:48:56;98990;;;
74485;BMP280;62942;52.462;10.846;2024-03-29T06:49:56;98990;;;
74485;BMP280;62942;52.462;10.846;2024-03-29T06:50:56;98980;;;
74485;BMP280;62942;52.462;10.846;2024-03-29T06:51:56;99000;;;
74485;BMP280;62942;52.462;10.846;2024-03-29T06:52:56;99000;;;
74485;BMP280;62942;52.462;10.846;2024-03-29T06:53:56;99000;;;
74485;BMP280;62942;52.462;10.846;2024-03-29T06:55:06;99000;;;
74485;BMP280;62942;52.462;10.846;2024-03-29T06:56:16;98990;;;
74485;BMP280;62942;52.462;10.846;2024-03-29T06:57:16;99000;;;
74485;BMP280;62942;52.462;10.846;2024-03-29T06:58:16;98990;;;
74485;BMP280;62942;52.462;10.846;2024-03-29T06:59:16;99000;;;
74485;BMP280;62942;52.462;10.846;2024-03-29T07:00:16;99000;;;
74485;BMP280;62942;52.462;10.846;2024-03-29T07:01:26;99000;;;
74485;BMP280;62942;52.462;10.846;2024-03-29T07:02:26;99000;;;
74485;BMP280;62942;52.462;10.846;2024-03-29T07:03:26;98990;;;
74485;BMP280;62942;52.462;10.846;2024-03-29T07:04:26;98990;;;
74485;BMP280;62942;52.462;10.846;2024-03-29T07:05:26;98990;;;